Time;durP1;ratioP1;P1;durP2;ratioP2;P2;SDS_P1;SDS_P2;PMS_P1;PMS_P2;Temp;Humidity;BMP_temperature;BMP_pressure;BME280_temperature;BME280_humidity;BME280_pressure;Samples;Min_cycle;Max_cycle;Signal;HPM_P1;HPM_P2
2023/08/28 00:01:50;;;;;;;3.50;1.40;;;15.20;99.90;;;;;;5090394;28;20843;-68
2023/08/28 00:04:16;;;;;;;1.87;1.10;;;15.20;99.90;;;;;;5090244;28;20680;-67
2023/08/28 00:06:42;;;;;;;2.40;1.50;;;15.20;99.90;;;;;;5090177;28;20411;-68
2023/08/28 00:09:07;;;;;;;1.80;1.20;;;15.20;99.90;;;;;;5090229;28;20188;-67
2023/08/28 00:11:33;;;;;;;2.10;1.63;;;15.10;99.90;;;;;;5090111;28;20183;-67
2023/08/28 00:13:59;;;;;;;2.77;1.60;;;15.00;99.90;;;;;;5090040;28;20184;-67
2023/08/28 00:16:24;;;;;;;1.60;1.27;;;15.00;99.90;;;;;;5088838;28;20211;-68
2023/08/28 00:18:50;;;;;;;4.10;1.60;;;15.00;99.90;;;;;;5090094;28;20266;-67
2023/08/28 00:21:15;;;;;;;3.17;1.03;;;15.00;99.90;;;;;;5090088;28;20691;-67
2023/08/28 00:23:41;;;;;;;2.27;1.57;;;15.10;99.90;;;;;;5088689;28;20188;-67
2023/08/28 00:26:07;;;;;;;3.53;1.50;;;15.10;99.90;;;;;;5089992;28;20291;-67
2023/08/28 00:28:33;;;;;;;3.63;1.50;;;15.10;99.90;;;;;;5090051;28;20608;-67
2023/08/28 00:30:58;;;;;;;5.23;1.70;;;15.00;99.90;;;;;;5089920;28;20444;-67
2023/08/28 00:33:25;;;;;;;5.53;1.40;;;15.00;99.90;;;;;;5088448;28;20185;-68
2023/08/28 00:35:51;;;;;;;2.50;1.40;;;15.00;99.90;;;;;;5088282;28;20200;-66
2023/08/28 00:38:16;;;;;;;1.67;1.50;;;15.00;99.90;;;;;;5089360;28;20418;-66
2023/08/28 00:40:42;;;;;;;5.00;1.10;;;15.00;99.90;;;;;;5089524;28;20206;-66
2023/08/28 00:43:08;;;;;;;4.90;1.53;;;14.80;99.90;;;;;;5089600;28;20565;-67
2023/08/28 00:45:39;;;;;;;3.20;2.03;;;14.90;99.90;;;;;;5089570;28;20438;-67
2023/08/28 00:48:05;;;;;;;1.80;1.43;;;14.90;99.90;;;;;;5089627;28;20411;-67
2023/08/28 00:50:30;;;;;;;2.53;1.23;;;14.90;99.90;;;;;;5089603;28;20431;-67
2023/08/28 00:52:56;;;;;;;8.57;2.00;;;14.90;99.90;;;;;;5089646;28;20278;-67
2023/08/28 00:55:23;;;;;;;3.90;1.53;;;14.90;99.90;;;;;;5089347;28;20460;-67
2023/08/28 00:57:48;;;;;;;7.63;1.50;;;15.00;99.90;;;;;;5088170;28;20421;-67
2023/08/28 01:00:15;;;;;;;1.67;1.33;;;15.00;99.90;;;;;;5089071;28;21127;-67
2023/08/28 01:02:40;;;;;;;2.03;1.83;;;14.90;99.90;;;;;;5092312;28;20672;-66
2023/08/28 01:05:07;;;;;;;5.33;1.40;;;14.80;99.90;;;;;;5094341;28;20433;-67
2023/08/28 01:07:49;;;;;;;1.43;1.20;;;14.70;99.90;;;;;;5095873;28;20776;-66
2023/08/28 01:10:33;;;;;;;5.90;1.70;;;14.70;99.90;;;;;;5095800;28;20980;-67
2023/08/28 01:13:26;;;;;;;6.30;1.90;;;14.70;99.90;;;;;;5094729;28;20461;-67
2023/08/28 01:15:53;;;;;;;1.87;1.50;;;14.60;99.90;;;;;;5085777;28;20454;-67
2023/08/28 01:18:20;;;;;;;3.10;1.57;;;14.50;99.90;;;;;;5096098;28;20417;-67
2023/08/28 01:20:47;;;;;;;2.57;1.37;;;14.40;99.90;;;;;;5096075;28;20466;-67
2023/08/28 01:23:48;;;;;;;1.50;1.33;;;14.40;99.90;;;;;;5096180;28;20418;-66
2023/08/28 01:26:15;;;;;;;4.90;1.50;;;14.50;99.90;;;;;;5041499;28;20517;-66
2023/08/28 01:28:41;;;;;;;1.63;1.40;;;14.50;99.90;;;;;;5094627;28;20424;-67
2023/08/28 01:31:06;;;;;;;2.97;1.80;;;14.60;99.90;;;;;;5094501;28;20427;-66
2023/08/28 01:33:33;;;;;;;4.00;1.77;;;14.70;99.90;;;;;;5094533;28;20207;-66
2023/08/28 01:36:16;;;;;;;1.40;1.23;;;14.80;99.90;;;;;;5095429;28;20370;-66
2023/08/28 01:38:49;;;;;;;3.47;1.97;;;14.70;99.90;;;;;;5094613;28;20506;-66
2023/08/28 01:41:19;;;;;;;5.23;1.50;;;14.70;99.90;;;;;;5095906;28;20566;-66
2023/08/28 01:43:47;;;;;;;3.80;1.90;;;14.70;99.90;;;;;;5096121;28;20409;-67
2023/08/28 01:46:14;;;;;;;3.57;1.60;;;14.60;99.90;;;;;;5095747;28;20556;-67
2023/08/28 01:48:52;;;;;;;1.90;1.17;;;14.50;99.90;;;;;;5095885;28;20476;-67
2023/08/28 01:51:18;;;;;;;4.40;1.60;;;14.60;99.90;;;;;;5095939;28;20401;-67
2023/08/28 01:53:44;;;;;;;4.30;1.50;;;14.50;99.90;;;;;;5095913;28;20925;-67
2023/08/28 01:56:09;;;;;;;3.20;1.50;;;14.50;99.90;;;;;;5094560;28;20545;-66
2023/08/28 01:58:42;;;;;;;4.83;1.50;;;14.50;99.90;;;;;;5095938;28;20955;-67
2023/08/28 02:01:08;;;;;;;8.03;1.50;;;14.40;99.90;;;;;;5095524;28;20694;-67
2023/08/28 02:03:34;;;;;;;4.53;1.70;;;14.40;99.90;;;;;;5095432;28;20453;-67
2023/08/28 02:05:59;;;;;;;4.30;1.67;;;14.60;99.90;;;;;;5094108;28;20203;-67
2023/08/28 02:08:25;;;;;;;1.70;1.60;;;14.50;99.90;;;;;;5095346;28;20256;-67
2023/08/28 02:10:52;;;;;;;4.93;1.57;;;14.50;99.90;;;;;;5095388;28;20215;-67
2023/08/28 02:13:17;;;;;;;3.30;1.60;;;14.50;99.90;;;;;;5093608;28;20264;-67
2023/08/28 02:15:43;;;;;;;4.03;1.83;;;14.50;99.90;;;;;;5091997;28;20446;-67
2023/08/28 02:18:08;;;;;;;2.07;1.77;;;14.50;99.90;;;;;;5091991;28;20181;-67
2023/08/28 02:20:34;;;;;;;5.90;1.50;;;14.50;99.90;;;;;;5091773;28;20218;-67
2023/08/28 02:23:00;;;;;;;5.70;1.73;;;14.50;99.90;;;;;;5090727;28;20188;-67
2023/08/28 02:25:25;;;;;;;1.40;1.30;;;14.50;99.90;;;;;;5091508;28;20199;-67
2023/08/28 02:27:51;;;;;;;3.23;1.83;;;14.40;99.90;;;;;;5090517;28;20650;-67
2023/08/28 02:30:17;;;;;;;3.23;1.43;;;14.40;99.90;;;;;;5091638;28;20214;-67
2023/08/28 02:32:43;;;;;;;3.40;2.03;;;14.40;99.90;;;;;;5091518;28;20194;-67
2023/08/28 02:35:09;;;;;;;2.30;1.80;;;14.40;99.90;;;;;;5091443;28;20440;-67
2023/08/28 02:37:35;;;;;;;6.77;1.73;;;14.40;99.90;;;;;;5073362;28;20192;-67
2023/08/28 02:40:00;;;;;;;2.90;1.67;;;14.40;99.90;;;;;;5090422;28;20456;-67
2023/08/28 02:42:26;;;;;;;4.17;1.40;;;14.40;99.90;;;;;;5089806;28;20543;-67
2023/08/28 02:44:52;;;;;;;3.63;1.73;;;14.40;99.90;;;;;;5091316;28;20195;-67
2023/08/28 02:47:17;;;;;;;6.23;1.77;;;14.30;99.90;;;;;;5091237;28;20180;-67
2023/08/28 02:49:43;;;;;;;2.37;1.73;;;14.30;99.90;;;;;;5091370;28;20170;-67
2023/08/28 02:52:09;;;;;;;2.80;1.57;;;14.30;99.90;;;;;;5091287;28;20191;-67
2023/08/28 02:54:34;;;;;;;4.27;1.73;;;14.40;99.90;;;;;;5091068;28;20686;-67
2023/08/28 02:57:00;;;;;;;1.60;1.50;;;14.30;99.90;;;;;;5091200;28;20179;-68
2023/08/28 02:59:27;;;;;;;2.27;1.20;;;14.20;99.90;;;;;;5091149;28;20642;-67
2023/08/28 03:01:53;;;;;;;6.43;1.73;;;14.20;99.90;;;;;;5091035;28;20415;-67
2023/08/28 03:04:19;;;;;;;2.10;1.40;;;14.20;99.90;;;;;;5090838;28;20540;-66
2023/08/28 03:06:45;;;;;;;2.10;1.70;;;14.20;99.90;;;;;;5090674;28;20841;-66
2023/08/28 03:09:13;;;;;;;1.60;1.50;;;14.30;99.90;;;;;;5090733;28;20179;-66
2023/08/28 03:11:39;;;;;;;3.30;1.73;;;14.30;99.90;;;;;;5090767;28;20270;-66
2023/08/28 03:14:04;;;;;;;2.43;1.80;;;14.30;99.90;;;;;;5090442;28;21002;-66
2023/08/28 03:16:30;;;;;;;4.03;1.77;;;14.30;99.90;;;;;;5088923;28;20187;-66
2023/08/28 03:18:56;;;;;;;5.60;2.27;;;14.30;99.90;;;;;;5090442;28;20667;-67
2023/08/28 03:21:22;;;;;;;4.00;1.30;;;14.40;99.90;;;;;;5090264;28;20457;-66
2023/08/28 03:23:47;;;;;;;5.20;1.80;;;14.30;99.90;;;;;;5090295;28;20175;-67
2023/08/28 03:26:13;;;;;;;2.03;1.43;;;14.20;99.90;;;;;;5088924;28;20474;-66
2023/08/28 03:28:39;;;;;;;4.13;1.70;;;14.20;99.90;;;;;;5090232;28;20211;-66
2023/08/28 03:31:04;;;;;;;4.70;1.90;;;14.20;99.90;;;;;;5090257;28;20206;-66
2023/08/28 03:33:30;;;;;;;5.33;1.73;;;14.10;99.90;;;;;;5090113;28;20183;-66
2023/08/28 03:35:56;;;;;;;2.03;1.70;;;14.10;99.90;;;;;;5090191;28;20241;-66
2023/08/28 03:38:22;;;;;;;3.20;1.57;;;14.10;99.90;;;;;;5071842;28;20435;-66
2023/08/28 03:40:48;;;;;;;4.47;1.80;;;14.10;99.90;;;;;;5089946;28;20383;-66
2023/08/28 03:43:13;;;;;;;3.83;1.47;;;14.10;99.90;;;;;;5090098;28;20905;-66
2023/08/28 03:45:39;;;;;;;5.63;1.60;;;14.10;99.90;;;;;;5088345;28;20550;-66
2023/08/28 03:48:06;;;;;;;6.97;1.47;;;14.00;99.90;;;;;;5089775;28;20259;-66
2023/08/28 03:50:32;;;;;;;2.37;1.20;;;14.00;99.90;;;;;;5089859;28;20907;-66
2023/08/28 03:52:59;;;;;;;2.30;1.40;;;14.00;99.90;;;;;;5088428;28;20421;-66
2023/08/28 03:55:27;;;;;;;2.57;1.27;;;14.00;99.90;;;;;;5089517;28;20497;-66
2023/08/28 03:57:53;;;;;;;2.50;1.73;;;14.00;99.90;;;;;;5088333;28;20429;-66
2023/08/28 04:00:19;;;;;;;6.80;2.43;;;14.00;99.90;;;;;;5089735;28;20826;-65
2023/08/28 04:02:46;;;;;;;6.83;1.90;;;14.10;99.90;;;;;;5089713;28;20416;-65
2023/08/28 04:05:12;;;;;;;5.37;1.70;;;14.20;99.90;;;;;;5089557;28;20577;-66
2023/08/28 04:07:38;;;;;;;2.47;1.67;;;14.10;99.90;;;;;;5089615;28;20564;-66
2023/08/28 04:10:05;;;;;;;2.80;1.70;;;14.10;99.90;;;;;;5089602;28;20449;-67
2023/08/28 04:12:32;;;;;;;4.40;1.67;;;14.10;99.90;;;;;;5088185;28;20517;-67
2023/08/28 04:14:57;;;;;;;1.83;1.57;;;14.10;99.90;;;;;;5089479;28;20443;-66
2023/08/28 04:17:23;;;;;;;1.70;1.60;;;14.20;99.90;;;;;;5090018;28;20415;-66
2023/08/28 04:19:51;;;;;;;2.00;1.40;;;14.10;99.90;;;;;;5089897;28;20737;-67
2023/08/28 04:22:20;;;;;;;4.80;2.07;;;14.20;99.90;;;;;;5089991;28;20510;-66
2023/08/28 04:24:46;;;;;;;2.20;1.90;;;14.10;99.90;;;;;;5089874;28;20433;-67
2023/08/28 04:27:15;;;;;;;3.57;2.53;;;14.20;99.90;;;;;;5089962;28;20563;-66
2023/08/28 04:29:40;;;;;;;6.30;2.10;;;14.20;99.90;;;;;;5088614;28;20782;-67
2023/08/28 04:32:06;;;;;;;3.17;1.90;;;14.10;99.90;;;;;;5090051;28;20419;-67
2023/08/28 04:34:32;;;;;;;4.13;2.03;;;14.10;99.90;;;;;;5089783;28;20202;-67
2023/08/28 04:36:58;;;;;;;5.43;1.90;;;14.10;99.90;;;;;;5089449;28;20416;-67
2023/08/28 04:39:23;;;;;;;12.30;2.63;;;14.20;99.90;;;;;;5089596;28;20244;-67
2023/08/28 04:41:50;;;;;;;5.90;1.57;;;14.20;99.90;;;;;;5089835;28;20654;-67
2023/08/28 04:44:15;;;;;;;4.63;1.83;;;14.20;99.90;;;;;;5089569;28;20192;-67
2023/08/28 04:46:41;;;;;;;3.93;2.03;;;14.10;99.90;;;;;;5089633;28;20777;-67
2023/08/28 04:49:07;;;;;;;3.23;1.87;;;14.10;99.90;;;;;;5088701;28;20174;-67
2023/08/28 04:51:32;;;;;;;2.83;2.07;;;14.20;99.90;;;;;;5088254;28;20606;-67
2023/08/28 04:53:58;;;;;;;3.43;2.00;;;14.10;99.90;;;;;;5087681;28;20203;-67
2023/08/28 04:56:23;;;;;;;2.60;1.90;;;14.20;99.90;;;;;;5087879;28;20193;-67
2023/08/28 04:58:49;;;;;;;5.87;1.80;;;14.20;99.90;;;;;;5087609;28;20204;-67
2023/08/28 05:01:15;;;;;;;3.20;1.93;;;14.20;99.90;;;;;;5087548;28;20202;-67
2023/08/28 05:03:40;;;;;;;2.43;1.80;;;14.20;99.90;;;;;;5087695;28;20186;-68
2023/08/28 05:06:06;;;;;;;2.83;1.63;;;14.20;99.90;;;;;;5087835;28;20290;-67
2023/08/28 05:08:32;;;;;;;2.07;1.80;;;14.20;99.90;;;;;;5087625;28;20268;-67
2023/08/28 05:10:57;;;;;;;4.17;2.70;;;14.20;99.90;;;;;;5086244;28;20184;-67
2023/08/28 05:13:23;;;;;;;3.90;2.50;;;14.20;99.90;;;;;;5087549;28;20692;-67
2023/08/28 05:15:48;;;;;;;1.60;1.50;;;14.10;99.90;;;;;;5087518;28;20226;-67
2023/08/28 05:18:14;;;;;;;3.00;2.00;;;14.20;99.90;;;;;;5087610;28;20258;-67
2023/08/28 05:20:41;;;;;;;5.37;2.10;;;14.30;99.90;;;;;;5087921;28;20210;-67
2023/08/28 05:23:07;;;;;;;3.10;2.03;;;14.30;99.90;;;;;;5087502;28;20405;-67
2023/08/28 05:25:32;;;;;;;6.83;2.47;;;14.30;99.90;;;;;;5087628;28;20443;-67
2023/08/28 05:27:58;;;;;;;6.40;2.60;;;14.30;99.90;;;;;;5087539;28;20183;-67
2023/08/28 05:30:23;;;;;;;7.10;2.10;;;14.20;99.90;;;;;;5086338;28;20270;-67
2023/08/28 05:32:49;;;;;;;4.77;2.10;;;14.30;99.90;;;;;;5085936;28;20188;-66
2023/08/28 05:35:15;;;;;;;3.93;2.33;;;14.30;99.90;;;;;;5087474;28;20208;-66
2023/08/28 05:37:40;;;;;;;4.17;2.87;;;14.30;99.90;;;;;;5086135;28;20560;-66
2023/08/28 05:40:08;;;;;;;2.70;1.83;;;14.40;99.90;;;;;;5087829;28;20218;-66
2023/08/28 05:42:34;;;;;;;2.00;1.80;;;14.30;99.90;;;;;;5086313;28;20284;-66
2023/08/28 05:45:00;;;;;;;4.07;2.00;;;14.40;99.90;;;;;;5087879;28;20531;-66
2023/08/28 05:47:25;;;;;;;5.67;2.47;;;14.40;99.90;;;;;;5087831;28;20621;-66
2023/08/28 05:49:51;;;;;;;3.73;2.17;;;14.40;99.90;;;;;;5090787;28;20555;-66
2023/08/28 05:52:16;;;;;;;5.70;3.20;;;14.40;99.90;;;;;;5090434;28;20607;-67
2023/08/28 05:54:42;;;;;;;2.93;2.27;;;14.40;99.90;;;;;;5091730;28;20225;-67
2023/08/28 05:57:07;;;;;;;3.33;3.03;;;14.40;99.90;;;;;;5090232;28;20681;-66
2023/08/28 05:59:33;;;;;;;4.70;2.97;;;14.50;99.90;;;;;;5090458;28;20211;-67
2023/08/28 06:01:59;;;;;;;5.70;2.50;;;14.50;99.90;;;;;;5092194;28;20175;-66
2023/08/28 06:04:24;;;;;;;2.80;2.60;;;14.50;99.90;;;;;;5091983;28;20944;-67
2023/08/28 06:06:50;;;;;;;6.83;3.10;;;14.60;99.90;;;;;;5090425;28;20183;-67
2023/08/28 06:09:15;;;;;;;3.50;2.60;;;14.70;99.90;;;;;;5090606;28;20606;-66
2023/08/28 06:11:42;;;;;;;4.63;3.07;;;14.70;99.90;;;;;;5091972;28;20272;-66
2023/08/28 06:14:08;;;;;;;6.23;3.10;;;14.80;99.90;;;;;;5091732;28;20203;-66
2023/08/28 06:16:33;;;;;;;5.50;2.97;;;14.80;99.90;;;;;;5073416;28;20545;-66
2023/08/28 06:18:59;;;;;;;7.60;3.87;;;14.80;99.90;;;;;;5091841;28;20652;-67
2023/08/28 06:21:24;;;;;;;5.70;2.80;;;14.80;99.90;;;;;;5073265;28;20319;-67
2023/08/28 06:23:50;;;;;;;4.03;2.90;;;14.80;99.90;;;;;;5091664;28;20179;-67
2023/08/28 06:26:16;;;;;;;5.13;4.10;;;14.90;99.90;;;;;;5091577;28;20649;-67
2023/08/28 06:28:41;;;;;;;8.70;2.77;;;14.90;99.90;;;;;;5091601;28;20267;-66
2023/08/28 06:31:07;;;;;;;4.20;3.40;;;14.90;99.90;;;;;;5091510;28;20199;-66
2023/08/28 06:33:32;;;;;;;5.53;3.80;;;14.90;99.90;;;;;;5073384;28;20215;-67
2023/08/28 06:35:58;;;;;;;14.67;3.33;;;14.90;99.90;;;;;;5091219;28;20276;-67
2023/08/28 06:38:23;;;;;;;9.53;3.77;;;15.00;99.90;;;;;;5090896;28;20200;-68
2023/08/28 06:40:52;;;;;;;13.97;4.50;;;14.90;99.90;;;;;;5090521;28;20208;-67
2023/08/28 06:43:18;;;;;;;6.27;4.20;;;14.90;99.90;;;;;;5090410;28;20183;-67
2023/08/28 06:45:46;;;;;;;5.90;4.00;;;14.90;99.90;;;;;;5090713;28;20953;-67
2023/08/28 06:48:12;;;;;;;5.30;4.37;;;14.90;99.90;;;;;;5091061;28;20557;-67
2023/08/28 06:50:38;;;;;;;7.13;5.10;;;14.90;99.90;;;;;;5090674;28;20413;-66
2023/08/28 06:53:04;;;;;;;7.17;5.10;;;14.90;99.90;;;;;;5090321;28;20206;-67
2023/08/28 06:55:32;;;;;;;7.87;5.90;;;14.90;99.90;;;;;;5090168;28;20797;-67
2023/08/28 06:57:57;;;;;;;7.33;5.43;;;14.90;99.90;;;;;;5089055;28;20176;-67
2023/08/28 07:00:23;;;;;;;7.93;6.50;;;14.90;99.90;;;;;;5089500;28;20489;-66
2023/08/28 07:02:49;;;;;;;8.33;6.60;;;14.90;99.90;;;;;;5089947;28;20180;-67
2023/08/28 07:05:14;;;;;;;9.40;6.77;;;14.90;99.90;;;;;;5090059;28;20225;-66
2023/08/28 07:07:40;;;;;;;10.40;6.97;;;14.90;99.90;;;;;;5090151;28;20647;-66
2023/08/28 07:10:06;;;;;;;9.40;7.40;;;14.80;99.90;;;;;;5090107;28;20189;-67
2023/08/28 07:12:33;;;;;;;12.10;7.17;;;14.70;99.90;;;;;;5089983;28;20187;-67
2023/08/28 07:15:11;;;;;;;10.53;6.90;;;14.80;99.90;;;;;;5090049;28;20513;-67
2023/08/28 07:17:37;;;;;;;12.00;6.93;;;14.80;99.90;;;;;;5089938;28;20413;-67
2023/08/28 07:20:04;;;;;;;9.07;6.63;;;14.80;99.90;;;;;;5090094;28;20985;-67
2023/08/28 07:22:30;;;;;;;11.53;8.03;;;14.80;99.90;;;;;;5088512;28;20414;-67
2023/08/28 07:24:56;;;;;;;11.43;6.80;;;14.80;99.90;;;;;;5090275;28;20436;-67
2023/08/28 07:27:22;;;;;;;8.00;7.03;;;14.80;99.90;;;;;;5090357;28;20421;-66
2023/08/28 07:29:47;;;;;;;9.20;7.03;;;14.80;99.90;;;;;;5090412;28;20183;-67
2023/08/28 07:32:13;;;;;;;8.80;6.83;;;14.80;99.90;;;;;;5090194;28;20263;-67
2023/08/28 07:34:38;;;;;;;11.63;7.50;;;14.90;99.90;;;;;;5090018;28;20203;-67
2023/08/28 07:37:04;;;;;;;11.20;7.60;;;14.80;99.90;;;;;;5089643;28;20197;-67
2023/08/28 07:39:30;;;;;;;10.13;7.13;;;14.90;99.90;;;;;;5089486;28;20679;-68
2023/08/28 07:41:57;;;;;;;10.83;7.07;;;14.90;99.90;;;;;;5089207;28;20291;-68
2023/08/28 07:44:22;;;;;;;8.10;6.83;;;14.90;99.90;;;;;;5089247;28;20433;-68
2023/08/28 07:46:48;;;;;;;9.00;7.13;;;14.90;99.90;;;;;;5089039;28;20430;-67
2023/08/28 07:49:13;;;;;;;7.60;6.77;;;14.90;99.90;;;;;;5087171;28;20271;-67
2023/08/28 07:51:39;;;;;;;10.07;6.93;;;14.90;99.90;;;;;;5087285;28;20215;-67
2023/08/28 07:54:05;;;;;;;8.63;7.63;;;14.90;99.90;;;;;;5088692;28;20297;-67
2023/08/28 07:56:30;;;;;;;10.90;7.07;;;15.00;99.90;;;;;;5088607;28;20241;-67
2023/08/28 07:58:56;;;;;;;9.07;6.93;;;14.90;99.90;;;;;;5088489;28;20700;-67
2023/08/28 08:01:22;;;;;;;17.00;6.87;;;14.90;99.90;;;;;;5088264;28;20222;-66
2023/08/28 08:03:48;;;;;;;11.43;6.87;;;15.00;99.90;;;;;;5088374;28;20276;-66
2023/08/28 08:06:13;;;;;;;8.83;6.80;;;15.00;99.90;;;;;;5088250;28;20410;-66
2023/08/28 08:08:39;;;;;;;10.70;7.50;;;15.10;99.90;;;;;;5088416;28;20244;-67
2023/08/28 08:11:05;;;;;;;9.50;8.10;;;15.10;99.90;;;;;;5087642;28;20183;-67
2023/08/28 08:13:30;;;;;;;9.43;7.20;;;15.10;99.90;;;;;;5088047;28;20183;-67
2023/08/28 08:15:56;;;;;;;12.60;6.90;;;15.10;99.90;;;;;;5087986;28;20570;-67
2023/08/28 08:18:21;;;;;;;9.50;6.70;;;15.10;99.90;;;;;;5087903;28;20276;-68
2023/08/28 08:20:47;;;;;;;10.20;7.17;;;15.10;99.90;;;;;;5087744;28;20211;-67
2023/08/28 08:23:13;;;;;;;10.00;6.67;;;15.20;99.90;;;;;;5088071;28;20191;-67
2023/08/28 08:25:39;;;;;;;14.00;6.53;;;15.20;99.90;;;;;;5086103;28;21206;-66
2023/08/28 08:28:04;;;;;;;11.47;7.30;;;15.20;99.90;;;;;;5088051;28;20177;-66
2023/08/28 08:30:30;;;;;;;8.53;7.57;;;15.10;99.90;;;;;;5088286;28;20180;-66
2023/08/28 08:32:56;;;;;;;12.00;7.90;;;15.10;99.90;;;;;;5088264;28;20422;-67
2023/08/28 08:35:21;;;;;;;8.40;7.10;;;15.20;99.90;;;;;;5088143;28;20199;-67
2023/08/28 08:37:52;;;;;;;9.63;7.17;;;15.20;99.90;;;;;;5088170;28;20191;-66
2023/08/28 08:40:19;;;;;;;12.90;7.80;;;15.20;99.90;;;;;;5088098;28;20210;-66
2023/08/28 08:42:45;;;;;;;11.63;7.50;;;15.20;99.90;;;;;;5088149;28;20800;-66
2023/08/28 08:45:10;;;;;;;7.57;6.63;;;15.10;99.90;;;;;;5087950;28;20436;-67
2023/08/28 08:47:38;;;;;;;10.33;7.40;;;15.10;99.90;;;;;;5087803;28;20185;-66
2023/08/28 08:50:06;;;;;;;11.10;7.20;;;15.20;99.90;;;;;;5087792;28;20184;-67
2023/08/28 08:52:35;;;;;;;15.60;5.70;;;15.10;99.90;;;;;;5087668;28;20420;-67
2023/08/28 08:55:12;;;;;;;13.80;6.57;;;15.20;99.90;;;;;;5087344;28;20465;-67
2023/08/28 08:57:42;;;;;;;8.70;7.00;;;15.20;99.90;;;;;;5087568;28;20868;-67
2023/08/28 09:00:14;;;;;;;7.27;5.97;;;15.20;99.90;;;;;;5087620;28;20525;-66
2023/08/28 09:02:41;;;;;;;7.90;6.43;;;15.20;99.90;;;;;;5087695;28;20462;-67
2023/08/28 09:05:09;;;;;;;7.83;7.03;;;15.30;99.90;;;;;;5087422;28;20796;-67
2023/08/28 09:07:37;;;;;;;10.30;6.63;;;15.30;99.90;;;;;;5087087;28;20417;-67
2023/08/28 09:10:04;;;;;;;15.20;7.20;;;15.20;99.90;;;;;;5085577;28;20530;-67
2023/08/28 09:12:30;;;;;;;14.80;6.73;;;15.20;99.90;;;;;;5085830;28;20921;-67
2023/08/28 09:14:55;;;;;;;13.93;7.40;;;15.20;99.90;;;;;;5086905;28;20472;-67
2023/08/28 09:17:21;;;;;;;10.07;6.53;;;15.20;99.90;;;;;;5085603;28;20772;-67
2023/08/28 09:19:48;;;;;;;10.50;7.10;;;15.20;99.90;;;;;;5085936;28;20189;-67
2023/08/28 09:22:13;;;;;;;10.33;6.13;;;15.20;99.90;;;;;;5087785;28;20490;-67
2023/08/28 09:24:39;;;;;;;12.80;6.00;;;15.20;99.90;;;;;;5091493;28;21082;-66
2023/08/28 09:27:05;;;;;;;13.80;6.03;;;15.20;99.90;;;;;;5091477;28;20666;-67
2023/08/28 09:29:30;;;;;;;11.80;6.63;;;15.30;99.90;;;;;;5091455;28;20193;-67
2023/08/28 09:32:03;;;;;;;6.03;5.43;;;15.30;99.90;;;;;;5091815;28;20217;-67
2023/08/28 09:34:39;;;;;;;8.37;5.57;;;15.40;99.90;;;;;;5091219;28;20208;-67
2023/08/28 09:37:11;;;;;;;5.57;5.07;;;15.40;99.90;;;;;;5091321;28;20420;-67
2023/08/28 09:39:41;;;;;;;6.07;5.47;;;15.50;99.90;;;;;;5091591;28;21010;-67
2023/08/28 09:42:09;;;;;;;7.07;5.37;;;15.40;99.90;;;;;;5091644;28;20427;-67
2023/08/28 09:44:37;;;;;;;7.17;5.30;;;15.30;99.90;;;;;;5091465;28;20852;-67
2023/08/28 09:47:03;;;;;;;7.60;5.83;;;15.30;99.90;;;;;;5091411;28;20933;-67
2023/08/28 09:49:29;;;;;;;6.30;5.00;;;15.40;99.90;;;;;;5091377;28;20471;-67
2023/08/28 09:51:57;;;;;;;7.30;5.10;;;15.40;99.90;;;;;;5091454;28;20421;-67
2023/08/28 09:54:23;;;;;;;11.43;5.50;;;15.40;99.90;;;;;;5091169;28;20273;-66
2023/08/28 09:56:48;;;;;;;5.87;5.30;;;15.40;99.90;;;;;;5091512;28;20419;-66
2023/08/28 09:59:15;;;;;;;5.00;4.47;;;15.50;99.90;;;;;;5091328;28;20260;-67
2023/08/28 10:01:41;;;;;;;5.13;4.30;;;15.40;99.90;;;;;;5089898;28;20231;-67
2023/08/28 10:04:09;;;;;;;6.00;5.40;;;15.50;99.90;;;;;;5091271;28;21287;-67
2023/08/28 10:06:41;;;;;;;8.20;5.63;;;15.50;99.90;;;;;;5091332;28;20306;-67
2023/08/28 10:09:15;;;;;;;9.80;4.50;;;15.50;99.90;;;;;;5091144;28;20446;-67
2023/08/28 10:11:42;;;;;;;5.50;4.70;;;15.60;99.90;;;;;;5091098;28;20948;-67
2023/08/28 10:14:08;;;;;;;5.90;4.50;;;15.70;99.90;;;;;;5091079;28;20505;-67
2023/08/28 10:16:37;;;;;;;6.63;4.80;;;15.50;99.90;;;;;;5092052;28;20857;-67
2023/08/28 10:19:38;;;;;;;6.57;4.63;;;15.50;99.90;;;;;;5090211;28;20475;-66
2023/08/28 10:22:07;;;;;;;6.93;5.00;;;15.60;99.90;;;;;;5091372;28;20535;-67
2023/08/28 10:24:35;;;;;;;5.60;5.10;;;15.60;99.90;;;;;;5090884;28;20439;-66
2023/08/28 10:27:01;;;;;;;6.23;5.63;;;15.60;99.90;;;;;;5091093;28;20407;-67
2023/08/28 10:29:28;;;;;;;7.10;5.00;;;15.60;99.90;;;;;;5091125;28;20419;-67
2023/08/28 10:31:56;;;;;;;5.37;4.87;;;15.60;99.90;;;;;;5091018;28;20509;-68
2023/08/28 10:34:24;;;;;;;7.93;5.17;;;15.50;99.90;;;;;;5090064;28;20438;-66
2023/08/28 10:36:51;;;;;;;6.50;5.70;;;15.50;99.90;;;;;;5091023;28;20475;-66
2023/08/28 10:39:20;;;;;;;7.23;5.77;;;15.50;99.90;;;;;;5091175;28;20984;-65
2023/08/28 10:41:47;;;;;;;6.30;5.10;;;15.60;99.90;;;;;;5090644;28;20500;-66
2023/08/28 10:44:13;;;;;;;11.20;5.43;;;15.70;99.90;;;;;;5089500;28;20938;-66
2023/08/28 10:46:40;;;;;;;7.90;5.03;;;15.70;99.90;;;;;;5089125;28;20427;-67
2023/08/28 10:49:07;;;;;;;5.57;5.07;;;15.90;99.90;;;;;;5090123;28;20414;-66
2023/08/28 10:51:37;;;;;;;6.60;5.87;;;15.90;99.90;;;;;;5090140;28;20405;-68
2023/08/28 10:54:08;;;;;;;7.43;4.90;;;15.90;99.90;;;;;;5090249;28;20438;-68
2023/08/28 10:56:35;;;;;;;7.20;5.30;;;16.10;99.90;;;;;;5090479;28;20423;-68
2023/08/28 10:59:24;;;;;;;4.77;4.10;;;15.90;99.90;;;;;;5090546;28;20915;-68
2023/08/28 11:01:57;;;;;;;4.73;4.23;;;16.10;99.90;;;;;;5090569;28;20465;-67
2023/08/28 11:04:31;;;;;;;4.90;4.10;;;16.00;99.90;;;;;;5089965;28;20499;-68
2023/08/28 11:06:57;;;;;;;4.37;3.80;;;16.10;99.90;;;;;;5090512;28;20411;-68
2023/08/28 11:09:29;;;;;;;5.27;3.83;;;16.10;99.90;;;;;;5089791;28;20458;-67
2023/08/28 11:11:57;;;;;;;4.33;3.70;;;16.10;99.90;;;;;;5089689;28;20186;-67
2023/08/28 11:14:33;;;;;;;3.80;3.50;;;16.00;99.90;;;;;;5089253;28;20504;-67
2023/08/28 11:17:12;;;;;;;3.70;3.27;;;16.00;99.90;;;;;;5089783;28;20478;-68
2023/08/28 11:19:53;;;;;;;9.33;4.30;;;16.10;99.90;;;;;;5088539;28;20434;-67
2023/08/28 11:22:33;;;;;;;4.73;3.67;;;16.10;99.90;;;;;;5089803;28;20427;-69
2023/08/28 11:25:01;;;;;;;4.03;3.27;;;16.10;99.90;;;;;;5089635;28;20442;-69
2023/08/28 11:27:46;;;;;;;3.97;3.07;;;16.00;99.90;;;;;;5089742;28;20431;-68
2023/08/28 11:30:13;;;;;;;5.23;3.57;;;16.00;99.90;;;;;;5089690;28;20405;-68
2023/08/28 11:32:42;;;;;;;4.47;3.20;;;16.10;99.90;;;;;;5089861;28;20419;-68
2023/08/28 11:35:09;;;;;;;5.20;3.20;;;16.00;99.90;;;;;;5089480;28;20490;-68
2023/08/28 11:37:39;;;;;;;4.80;3.40;;;16.00;99.90;;;;;;5088186;28;20419;-68
2023/08/28 11:40:06;;;;;;;5.07;3.60;;;16.10;99.90;;;;;;5089347;28;20494;-67
2023/08/28 11:42:33;;;;;;;4.67;2.93;;;16.10;99.90;;;;;;5088018;28;20406;-68
2023/08/28 11:44:59;;;;;;;3.70;3.07;;;16.10;99.90;;;;;;5089324;28;20907;-68
2023/08/28 11:47:30;;;;;;;3.67;3.13;;;16.20;99.90;;;;;;5088332;28;20424;-68
2023/08/28 11:49:57;;;;;;;9.27;3.40;;;16.20;99.90;;;;;;5089508;28;20173;-68
2023/08/28 11:52:23;;;;;;;5.47;3.50;;;16.20;99.90;;;;;;5089668;28;20410;-67
2023/08/28 11:54:49;;;;;;;4.80;3.23;;;16.20;99.90;;;;;;5089464;28;20572;-67
2023/08/28 11:57:17;;;;;;;3.57;3.33;;;16.30;99.90;;;;;;5089553;28;20420;-67
2023/08/28 11:59:47;;;;;;;8.07;3.30;;;16.20;99.90;;;;;;5089800;28;20416;-67
2023/08/28 12:02:14;;;;;;;4.40;3.20;;;16.20;99.90;;;;;;5089836;28;20893;-67
2023/08/28 12:04:41;;;;;;;3.03;2.77;;;16.10;99.90;;;;;;5089629;28;20439;-67
2023/08/28 12:07:23;;;;;;;3.13;2.83;;;16.10;99.90;;;;;;5089634;28;20405;-67
2023/08/28 12:09:50;;;;;;;8.90;3.83;;;16.00;99.90;;;;;;5089616;28;20404;-67
2023/08/28 12:12:17;;;;;;;4.00;2.67;;;16.00;99.90;;;;;;5089474;28;20397;-67
2023/08/28 12:14:44;;;;;;;6.60;2.80;;;16.10;99.90;;;;;;5089621;28;20417;-67
2023/08/28 12:17:14;;;;;;;3.23;3.00;;;16.10;99.90;;;;;;5089093;28;20402;-67
2023/08/28 12:19:40;;;;;;;3.53;3.03;;;16.00;99.90;;;;;;5087419;28;20415;-68
2023/08/28 12:22:07;;;;;;;3.20;2.43;;;16.00;99.90;;;;;;5088580;28;20466;-68
2023/08/28 12:24:32;;;;;;;3.23;2.63;;;16.10;99.90;;;;;;5088772;28;20929;-68
2023/08/28 12:26:58;;;;;;;2.77;2.57;;;15.90;99.90;;;;;;5088950;28;20455;-68
2023/08/28 12:29:25;;;;;;;3.00;2.70;;;15.80;99.90;;;;;;5088690;28;20281;-68
2023/08/28 12:31:50;;;;;;;3.00;2.80;;;15.90;99.90;;;;;;5088618;28;20506;-67
2023/08/28 12:34:16;;;;;;;6.17;3.20;;;15.90;99.90;;;;;;5088479;28;20918;-67
2023/08/28 12:36:46;;;;;;;4.07;2.53;;;16.00;99.90;;;;;;5088295;28;20179;-67
2023/08/28 12:39:16;;;;;;;2.83;2.63;;;16.00;99.90;;;;;;5086658;28;20663;-68
2023/08/28 12:41:53;;;;;;;3.57;2.97;;;16.10;99.90;;;;;;5088249;28;20462;-66
2023/08/28 12:44:19;;;;;;;3.47;2.53;;;16.10;99.90;;;;;;5088387;28;21134;-67
2023/08/28 12:46:45;;;;;;;5.57;3.30;;;16.00;99.90;;;;;;5088474;28;20791;-68